createdAt,value
2023-03-17T00:01:23.960Z,30.80
2023-03-17T00:03:51.139Z,30.90
2023-03-17T00:06:25.151Z,30.90
2023-03-17T00:08:51.778Z,30.90
2023-03-17T00:11:18.781Z,30.90
2023-03-17T00:13:46.189Z,30.80
2023-03-17T00:16:20.768Z,30.90
2023-03-17T00:18:49.406Z,30.90
2023-03-17T00:21:22.549Z,30.90
2023-03-17T00:23:51.734Z,30.90
2023-03-17T00:26:19.633Z,31.00
2023-03-17T00:28:46.367Z,30.90
2023-03-17T00:31:15.546Z,30.90
2023-03-17T00:33:45.133Z,31.00
2023-03-17T00:36:22.889Z,31.00
2023-03-17T00:38:50.988Z,31.00
2023-03-17T00:41:18.248Z,31.00
2023-03-17T00:43:45.560Z,31.00
2023-03-17T00:46:35.440Z,31.00
2023-03-17T00:49:09.628Z,31.00
2023-03-17T00:51:36.193Z,31.10
2023-03-17T00:54:02.836Z,31.00
2023-03-17T00:56:29.530Z,31.00
2023-03-17T00:58:56.603Z,31.10
2023-03-17T01:01:23.231Z,31.00
2023-03-17T01:03:49.834Z,31.00
2023-03-17T01:06:16.656Z,31.10
2023-03-17T01:08:44.712Z,31.00
2023-03-17T01:11:18.524Z,31.10
2023-03-17T01:13:45.700Z,31.10
2023-03-17T01:16:12.909Z,31.10
2023-03-17T01:18:39.904Z,31.10
2023-03-17T01:21:06.651Z,31.10
2023-03-17T01:23:33.805Z,31.10
2023-03-17T01:26:00.656Z,31.10
2023-03-17T01:28:28.196Z,31.10
2023-03-17T01:30:55.382Z,31.20
2023-03-17T01:33:22.559Z,31.20
2023-03-17T01:35:50.860Z,31.20
2023-03-17T01:38:17.855Z,31.20
2023-03-17T01:40:47.961Z,31.20
2023-03-17T01:43:28.054Z,31.20
2023-03-17T01:46:13.751Z,31.20
2023-03-17T01:49:05.711Z,31.20
2023-03-17T01:51:41.254Z,31.20
2023-03-17T01:54:12.258Z,31.20
2023-03-17T01:56:41.685Z,31.20
2023-03-17T01:59:11.183Z,31.10
2023-03-17T02:01:40.964Z,31.10
2023-03-17T02:04:08.557Z,31.10
2023-03-17T02:06:37.039Z,31.10
2023-03-17T02:09:07.784Z,31.10
2023-03-17T02:11:34.935Z,31.10
2023-03-17T02:14:01.721Z,31.10
2023-03-17T02:16:30.422Z,31.10
2023-03-17T02:18:57.366Z,31.20
2023-03-17T02:21:36.950Z,31.10
2023-03-17T02:24:08.830Z,31.20
2023-03-17T02:26:36.576Z,31.20
2023-03-17T02:29:03.651Z,31.90
2023-03-17T02:31:30.284Z,31.20
2023-03-17T02:33:56.910Z,31.20
2023-03-17T02:36:23.921Z,31.20
2023-03-17T02:38:50.729Z,31.20
2023-03-17T02:41:17.406Z,31.30
2023-03-17T02:43:44.313Z,31.20
2023-03-17T02:46:11.075Z,31.20
2023-03-17T02:48:39.055Z,31.20
2023-03-17T02:51:06.001Z,31.30
2023-03-17T02:53:32.647Z,31.30
2023-03-17T02:55:59.416Z,31.30
2023-03-17T02:58:26.037Z,31.40
2023-03-17T03:00:53.139Z,31.30
2023-03-17T03:03:19.859Z,31.40
2023-03-17T03:05:47.264Z,31.30
2023-03-17T03:08:14.197Z,31.40
2023-03-17T03:10:41.720Z,31.30
2023-03-17T03:13:08.596Z,31.40
2023-03-17T03:15:35.709Z,31.40
2023-03-17T03:18:02.316Z,31.40
2023-03-17T03:20:29.294Z,31.30
2023-03-17T03:22:56.430Z,31.40
2023-03-17T03:25:23.017Z,31.40
2023-03-17T03:27:49.602Z,31.40
2023-03-17T03:30:16.241Z,31.40
2023-03-17T03:32:42.903Z,31.40
2023-03-17T03:35:10.371Z,31.50
2023-03-17T03:37:37.054Z,31.40
2023-03-17T03:40:04.437Z,31.40
2023-03-17T03:42:31.044Z,31.40
2023-03-17T03:44:57.848Z,31.60
2023-03-17T03:47:24.518Z,31.30
2023-03-17T03:49:51.207Z,31.40
2023-03-17T03:52:17.942Z,31.40
2023-03-17T03:54:44.598Z,31.40
2023-03-17T03:57:11.334Z,31.40
2023-03-17T03:59:38.108Z,31.40
2023-03-17T04:02:04.819Z,31.40
2023-03-17T04:04:31.596Z,31.40
2023-03-17T04:06:58.545Z,31.50
2023-03-17T04:09:25.761Z,31.40
2023-03-17T04:11:52.444Z,31.50
2023-03-17T04:14:19.494Z,31.50
2023-03-17T04:16:46.104Z,31.50
2023-03-17T04:19:12.734Z,31.50
2023-03-17T04:21:39.440Z,31.60
2023-03-17T04:24:06.476Z,31.70
2023-03-17T04:26:33.126Z,31.70
2023-03-17T04:28:59.764Z,32.10
2023-03-17T04:31:26.423Z,31.70
2023-03-17T04:33:53.401Z,31.70
2023-03-17T04:36:23.577Z,31.80
2023-03-17T04:38:50.403Z,31.70
2023-03-17T04:41:17.237Z,31.90
2023-03-17T04:43:43.869Z,31.80
2023-03-17T04:46:10.930Z,31.70
2023-03-17T04:48:37.798Z,31.70
2023-03-17T04:51:04.776Z,31.70
2023-03-17T04:53:31.531Z,31.60
2023-03-17T04:55:58.168Z,31.60
2023-03-17T04:58:30.896Z,31.60
2023-03-17T05:00:58.631Z,31.50
2023-03-17T05:03:27.525Z,31.50
2023-03-17T05:05:55.396Z,31.60
2023-03-17T05:08:21.975Z,31.40
2023-03-17T05:10:51.414Z,31.30
2023-03-17T05:13:18.874Z,31.40
2023-03-17T05:15:50.143Z,31.30
2023-03-17T05:18:16.824Z,31.30
2023-03-17T05:20:43.623Z,31.30
2023-03-17T05:23:10.588Z,31.40
2023-03-17T05:25:37.520Z,31.30
2023-03-17T05:28:04.242Z,31.40
2023-03-17T05:30:31.226Z,31.30
2023-03-17T05:32:58.681Z,31.30
2023-03-17T05:35:25.569Z,31.30
2023-03-17T05:37:52.491Z,31.30
2023-03-17T05:40:19.255Z,31.20
2023-03-17T05:42:46.023Z,31.20
2023-03-17T05:45:13.125Z,31.30
2023-03-17T05:47:39.995Z,31.30
2023-03-17T05:50:07.933Z,31.30
2023-03-17T05:52:34.591Z,31.30
2023-03-17T05:55:01.281Z,31.20
2023-03-17T05:57:28.271Z,31.30
2023-03-17T05:59:54.837Z,31.30
2023-03-17T06:02:21.930Z,31.30
2023-03-17T06:04:48.555Z,31.20
2023-03-17T06:07:15.653Z,31.20
2023-03-17T06:09:42.242Z,31.20
2023-03-17T06:12:09.579Z,31.30
2023-03-17T06:14:36.560Z,31.30
2023-03-17T06:17:03.358Z,31.30
2023-03-17T06:19:29.957Z,31.30
2023-03-17T06:21:57.080Z,31.30
2023-03-17T06:24:23.802Z,31.40
2023-03-17T06:26:51.387Z,31.30
2023-03-17T06:29:18.152Z,31.50
2023-03-17T06:31:50.290Z,31.40
2023-03-17T06:34:18.659Z,31.60
2023-03-17T06:36:45.537Z,31.50
2023-03-17T06:39:12.876Z,31.60
2023-03-17T06:41:39.610Z,31.60
2023-03-17T06:44:07.335Z,31.60
2023-03-17T06:46:34.573Z,31.80
2023-03-17T06:49:01.805Z,31.80
2023-03-17T06:51:28.403Z,31.90
2023-03-17T06:53:55.192Z,31.90
2023-03-17T06:56:29.749Z,31.80
2023-03-17T06:58:57.056Z,31.90
2023-03-17T07:01:23.971Z,31.90
2023-03-17T07:03:50.736Z,31.90
2023-03-17T07:06:17.487Z,31.90
2023-03-17T07:08:44.077Z,31.90
2023-03-17T07:11:11.024Z,31.90
2023-03-17T07:13:38.790Z,31.90
2023-03-17T07:16:05.778Z,31.90
2023-03-17T07:18:33.687Z,31.90
2023-03-17T07:21:01.820Z,31.90
2023-03-17T07:23:29.401Z,31.80
2023-03-17T07:25:57.405Z,31.90
2023-03-17T07:28:24.395Z,31.80
2023-03-17T07:30:51.382Z,31.80
2023-03-17T07:33:21.067Z,31.90
2023-03-17T07:35:48.823Z,31.80
2023-03-17T07:38:17.084Z,31.80
2023-03-17T07:40:46.698Z,31.80
2023-03-17T07:43:13.752Z,31.70
2023-03-17T07:45:40.362Z,31.70
2023-03-17T07:48:08.359Z,31.80
2023-03-17T07:50:35.559Z,31.70
2023-03-17T07:53:03.159Z,31.70
2023-03-17T07:55:31.419Z,31.70
2023-03-17T07:57:58.701Z,31.80
2023-03-17T08:00:27.010Z,31.70
2023-03-17T08:03:06.848Z,31.70
2023-03-17T08:05:35.953Z,31.70
2023-03-17T08:08:02.599Z,31.70
2023-03-17T08:10:29.784Z,31.70
2023-03-17T08:12:57.223Z,31.60
2023-03-17T08:15:23.878Z,31.70
2023-03-17T08:17:50.646Z,31.70
2023-03-17T08:20:17.917Z,31.60
2023-03-17T08:22:44.542Z,31.50
2023-03-17T08:25:12.533Z,31.50
2023-03-17T08:27:39.282Z,31.60
2023-03-17T08:30:06.567Z,31.60
2023-03-17T08:32:33.345Z,31.50
2023-03-17T08:35:00.394Z,31.60
2023-03-17T08:37:27.711Z,31.60
2023-03-17T08:39:54.392Z,31.60
2023-03-17T08:42:21.521Z,31.60
2023-03-17T08:44:48.121Z,31.60
2023-03-17T08:47:14.720Z,31.60
2023-03-17T08:49:42.326Z,31.50
2023-03-17T08:52:08.990Z,31.60
2023-03-17T08:54:35.935Z,31.50
2023-03-17T08:57:02.691Z,31.60
2023-03-17T08:59:29.329Z,31.60
2023-03-17T09:01:56.866Z,31.60
2023-03-17T09:04:23.551Z,31.50
2023-03-17T09:07:02.735Z,31.60
2023-03-17T09:09:31.078Z,31.50
2023-03-17T09:11:58.603Z,31.50
2023-03-17T09:14:25.230Z,31.40
2023-03-17T09:16:52.488Z,31.30
2023-03-17T09:19:19.322Z,31.30
2023-03-17T09:21:46.104Z,31.30
2023-03-17T09:24:13.628Z,31.30
2023-03-17T09:26:40.407Z,31.20
2023-03-17T09:29:07.952Z,31.20
2023-03-17T09:31:36.532Z,31.20
2023-03-17T09:34:05.195Z,31.20
2023-03-17T09:36:36.069Z,31.10
2023-03-17T09:39:03.007Z,31.10
2023-03-17T09:41:49.040Z,31.10
2023-03-17T09:44:33.829Z,30.80
2023-03-17T09:47:36.088Z,30.70
2023-03-17T09:50:10.656Z,30.60
2023-03-17T09:52:37.910Z,30.60
2023-03-17T09:55:08.520Z,30.50
2023-03-17T09:57:40.405Z,30.20
2023-03-17T10:00:14.468Z,30.10
2023-03-17T10:02:43.138Z,29.90
2023-03-17T10:05:24.167Z,30.00
2023-03-17T10:08:29.479Z,29.80
2023-03-17T10:11:39.699Z,29.60
2023-03-17T10:14:27.142Z,29.50
2023-03-17T10:17:23.597Z,29.40
2023-03-17T10:20:08.547Z,29.30
2023-03-17T10:22:46.177Z,29.20
2023-03-17T10:25:17.743Z,29.20
2023-03-17T10:27:50.614Z,29.10
2023-03-17T10:30:21.028Z,29.10
2023-03-17T10:32:48.863Z,29.00
2023-03-17T10:35:17.077Z,29.00
2023-03-17T10:37:46.477Z,29.00
2023-03-17T10:40:28.804Z,28.90
2023-03-17T10:43:01.821Z,28.70
2023-03-17T10:45:32.353Z,28.60
2023-03-17T10:48:02.524Z,28.70
2023-03-17T10:50:34.473Z,28.60
2023-03-17T10:53:04.059Z,28.60
2023-03-17T10:55:51.719Z,28.60
2023-03-17T10:58:37.067Z,28.50
2023-03-17T11:01:25.715Z,28.50
2023-03-17T11:03:52.444Z,28.50
2023-03-17T11:06:20.916Z,28.60
2023-03-17T11:08:50.272Z,28.60
2023-03-17T11:11:34.536Z,28.60
2023-03-17T11:14:05.403Z,28.70
2023-03-17T11:16:38.207Z,28.70
2023-03-17T11:19:12.156Z,28.70
2023-03-17T11:21:54.384Z,28.80
2023-03-17T11:24:33.480Z,28.90
2023-03-17T11:27:11.970Z,28.80
2023-03-17T11:29:52.726Z,28.90
2023-03-17T11:32:43.848Z,28.90
2023-03-17T11:35:28.832Z,28.80
2023-03-17T11:38:04.708Z,28.80
2023-03-17T11:40:45.557Z,28.80
2023-03-17T11:43:21.869Z,28.80
2023-03-17T11:46:09.603Z,28.80
2023-03-17T11:48:55.138Z,28.80
2023-03-17T11:51:56.478Z,28.80
2023-03-17T11:54:47.367Z,28.80
2023-03-17T11:57:23.332Z,28.70
2023-03-17T12:00:04.871Z,28.70
2023-03-17T12:02:56.265Z,28.80
2023-03-17T12:05:25.538Z,28.70
2023-03-17T12:08:03.442Z,28.80
2023-03-17T12:10:47.687Z,28.70
2023-03-17T12:13:23.152Z,28.80
2023-03-17T12:16:00.052Z,27.70
2023-03-17T12:18:56.656Z,26.90
2023-03-17T12:21:33.995Z,26.30
2023-03-17T12:24:05.989Z,25.60
2023-03-17T12:26:57.553Z,25.60
2023-03-17T12:29:49.797Z,25.10
2023-03-17T12:32:22.422Z,25.60
2023-03-17T12:34:57.348Z,25.70
2023-03-17T12:37:27.634Z,26.20
2023-03-17T12:40:15.861Z,25.30
2023-03-17T12:43:07.306Z,25.00
2023-03-17T12:46:10.975Z,26.00
2023-03-17T12:48:58.620Z,26.10
2023-03-17T12:51:56.134Z,26.10
2023-03-17T12:54:37.372Z,26.30
2023-03-17T12:57:14.558Z,26.50
2023-03-17T12:59:47.175Z,26.30
2023-03-17T13:02:28.447Z,26.30
2023-03-17T13:05:00.401Z,26.20
2023-03-17T13:07:38.328Z,26.20
2023-03-17T13:10:18.841Z,26.00
2023-03-17T13:12:48.385Z,26.00
2023-03-17T13:15:37.964Z,26.10
2023-03-17T13:18:16.745Z,26.10
2023-03-17T13:20:52.490Z,26.00
2023-03-17T13:23:57.022Z,25.80
2023-03-17T13:26:50.483Z,25.50
2023-03-17T13:29:32.545Z,25.40
2023-03-17T13:32:17.287Z,25.80
2023-03-17T13:34:55.718Z,25.80
2023-03-17T13:37:30.684Z,26.20
2023-03-17T13:40:31.703Z,26.70
2023-03-17T13:43:19.936Z,27.10
2023-03-17T13:45:48.581Z,27.50
2023-03-17T13:48:30.099Z,27.70
2023-03-17T13:51:09.027Z,27.90
2023-03-17T13:53:42.726Z,27.60
2023-03-17T13:56:16.700Z,27.80
2023-03-17T13:59:01.776Z,28.10
2023-03-17T14:01:59.356Z,28.30
2023-03-17T14:04:29.815Z,28.30
2023-03-17T14:07:05.414Z,28.10
2023-03-17T14:09:40.991Z,28.20
2023-03-17T14:12:45.217Z,28.20
2023-03-17T14:15:48.038Z,27.70
2023-03-17T14:18:30.663Z,27.80
2023-03-17T14:20:59.250Z,27.90
2023-03-17T14:23:26.534Z,28.00
2023-03-17T14:25:56.901Z,28.10
2023-03-17T14:28:27.617Z,28.20
2023-03-17T14:30:56.489Z,28.20
2023-03-17T14:33:31.186Z,28.30
2023-03-17T14:36:00.696Z,28.30
2023-03-17T14:38:30.312Z,28.20
2023-03-17T14:41:24.361Z,28.30
2023-03-17T14:43:52.642Z,28.40
2023-03-17T14:46:25.244Z,28.30
2023-03-17T14:48:59.396Z,28.30
2023-03-17T14:51:36.089Z,28.30
2023-03-17T14:54:15.318Z,28.40
2023-03-17T14:56:46.579Z,28.40
2023-03-17T14:59:36.206Z,28.40
2023-03-17T15:02:20.938Z,28.30
2023-03-17T15:04:57.923Z,28.30
2023-03-17T15:07:37.734Z,28.30
2023-03-17T15:10:06.724Z,28.30
2023-03-17T15:12:33.630Z,28.30
2023-03-17T15:15:05.306Z,28.30
2023-03-17T15:17:38.199Z,28.30
2023-03-17T15:20:13.485Z,28.30
2023-03-17T15:22:43.279Z,28.30
2023-03-17T15:25:27.799Z,28.30
2023-03-17T15:27:55.699Z,28.30
2023-03-17T15:30:22.392Z,28.30
2023-03-17T15:32:59.302Z,28.30
2023-03-17T15:35:27.229Z,28.30
2023-03-17T15:37:54.841Z,28.40
2023-03-17T15:40:22.141Z,28.40
2023-03-17T15:42:48.775Z,28.50
2023-03-17T15:45:16.908Z,28.50
2023-03-17T15:47:45.346Z,28.60
2023-03-17T15:50:19.180Z,28.80
2023-03-17T15:52:46.124Z,29.00
2023-03-17T15:55:31.006Z,29.10
2023-03-17T15:57:58.595Z,28.90
2023-03-17T16:00:28.989Z,28.80
2023-03-17T16:02:59.592Z,28.70
2023-03-17T16:05:30.991Z,28.80
2023-03-17T16:07:57.692Z,28.80
2023-03-17T16:10:29.885Z,28.80
2023-03-17T16:12:56.656Z,28.80
2023-03-17T16:15:26.444Z,28.90
2023-03-17T16:17:58.290Z,28.90
2023-03-17T16:20:27.078Z,28.80
2023-03-17T16:22:55.769Z,28.70
2023-03-17T16:25:28.227Z,28.60
2023-03-17T16:27:57.698Z,28.60
2023-03-17T16:30:27.276Z,28.60
2023-03-17T16:32:54.886Z,28.70
2023-03-17T16:35:23.602Z,28.80
2023-03-17T16:37:54.259Z,28.70
2023-03-17T16:40:25.247Z,28.70
2023-03-17T16:42:52.171Z,28.60
2023-03-17T16:45:27.425Z,28.60
2023-03-17T16:47:55.586Z,28.50
2023-03-17T16:50:24.955Z,28.60
2023-03-17T16:52:51.641Z,28.50
2023-03-17T16:55:19.803Z,28.50
2023-03-17T16:57:48.246Z,28.50
2023-03-17T17:00:25.038Z,28.40
2023-03-17T17:02:52.701Z,28.40
2023-03-17T17:05:25.279Z,28.40
2023-03-17T17:07:55.079Z,28.40
2023-03-17T17:10:24.078Z,28.40
2023-03-17T17:12:51.377Z,28.50
2023-03-17T17:15:20.192Z,28.50
2023-03-17T17:17:51.074Z,28.40
2023-03-17T17:20:25.853Z,28.50
2023-03-17T17:22:52.475Z,28.40
2023-03-17T17:25:19.076Z,28.50
2023-03-17T17:27:46.962Z,28.50
2023-03-17T17:30:17.411Z,28.50
2023-03-17T17:32:45.005Z,28.50
2023-03-17T17:35:12.593Z,28.50
2023-03-17T17:37:39.817Z,28.60
2023-03-17T17:40:08.738Z,28.60
2023-03-17T17:42:36.030Z,28.70
2023-03-17T17:45:02.653Z,28.70
2023-03-17T17:47:32.235Z,28.70
2023-03-17T17:49:59.559Z,28.80
2023-03-17T17:52:26.282Z,28.90
2023-03-17T17:54:52.867Z,28.90
2023-03-17T17:57:19.503Z,28.90
2023-03-17T17:59:46.076Z,28.90
2023-03-17T18:02:13.488Z,29.00
2023-03-17T18:04:41.417Z,29.00
2023-03-17T18:07:08.184Z,28.90
2023-03-17T18:09:35.553Z,29.00
2023-03-17T18:12:02.440Z,29.00
2023-03-17T18:14:29.082Z,29.00
2023-03-17T18:16:56.201Z,29.00
2023-03-17T18:19:23.252Z,29.00
2023-03-17T18:21:49.896Z,29.00
2023-03-17T18:24:17.301Z,29.00
2023-03-17T18:26:44.010Z,29.00
2023-03-17T18:29:12.058Z,29.00
2023-03-17T18:31:46.570Z,29.00
2023-03-17T18:34:21.679Z,29.10
2023-03-17T18:36:49.163Z,29.10
2023-03-17T18:39:16.332Z,29.00
2023-03-17T18:41:43.833Z,29.10
2023-03-17T18:44:10.995Z,29.10
2023-03-17T18:46:37.801Z,29.10
2023-03-17T18:49:08.656Z,29.20
2023-03-17T18:51:35.733Z,29.10
2023-03-17T18:54:03.109Z,29.10
2023-03-17T18:56:29.750Z,29.20
2023-03-17T18:58:57.862Z,29.20
2023-03-17T19:01:25.637Z,29.20
2023-03-17T19:03:52.323Z,29.20
2023-03-17T19:06:20.599Z,29.30
2023-03-17T19:08:47.962Z,29.40
2023-03-17T19:11:18.204Z,29.30
2023-03-17T19:13:45.766Z,29.40
2023-03-17T19:16:13.325Z,29.40
2023-03-17T19:18:42.251Z,29.40
2023-03-17T19:21:09.818Z,29.40
2023-03-17T19:23:38.069Z,29.50
2023-03-17T19:26:05.648Z,29.40
2023-03-17T19:28:32.726Z,29.50
2023-03-17T19:30:59.397Z,29.50
2023-03-17T19:33:26.086Z,29.50
2023-03-17T19:35:58.669Z,29.50
2023-03-17T19:38:27.158Z,29.60
2023-03-17T19:40:54.332Z,29.60
2023-03-17T19:43:38.993Z,29.80
2023-03-17T19:46:07.643Z,29.70
2023-03-17T19:48:34.469Z,29.70
2023-03-17T19:51:02.130Z,29.70
2023-03-17T19:53:28.751Z,29.70
2023-03-17T19:55:56.945Z,29.70
2023-03-17T19:58:23.918Z,29.70
2023-03-17T20:00:50.729Z,29.60
2023-03-17T20:03:17.774Z,29.80
2023-03-17T20:05:45.713Z,29.70
2023-03-17T20:08:12.401Z,29.80
2023-03-17T20:10:39.388Z,29.80
2023-03-17T20:13:06.483Z,29.80
2023-03-17T20:15:33.845Z,29.80
2023-03-17T20:18:00.731Z,29.80
2023-03-17T20:20:27.490Z,29.80
2023-03-17T20:22:54.342Z,29.90
2023-03-17T20:25:21.780Z,29.90
2023-03-17T20:27:48.490Z,29.90
2023-03-17T20:30:16.066Z,30.00
2023-03-17T20:32:44.144Z,30.00
2023-03-17T20:35:11.343Z,30.00
2023-03-17T20:37:38.627Z,30.00
2023-03-17T20:40:08.215Z,30.00
2023-03-17T20:42:34.931Z,30.00
2023-03-17T20:45:03.213Z,30.00
2023-03-17T20:47:29.874Z,30.00
2023-03-17T20:49:58.768Z,30.00
2023-03-17T20:52:29.526Z,30.00
2023-03-17T20:54:56.709Z,30.00
2023-03-17T20:57:23.293Z,30.00
2023-03-17T20:59:51.301Z,30.10
2023-03-17T21:02:18.360Z,30.10
2023-03-17T21:04:49.362Z,30.10
2023-03-17T21:07:21.588Z,30.10
2023-03-17T21:09:48.817Z,30.20
2023-03-17T21:12:18.805Z,30.90
2023-03-17T21:14:48.165Z,30.20
2023-03-17T21:17:16.367Z,30.20
2023-03-17T21:19:43.285Z,30.20
2023-03-17T21:22:10.572Z,30.40
2023-03-17T21:24:39.749Z,30.20
2023-03-17T21:27:11.207Z,30.30
2023-03-17T21:29:39.597Z,30.30
2023-03-17T21:32:08.306Z,30.40
2023-03-17T21:34:35.943Z,30.30
2023-03-17T21:37:02.801Z,30.30
2023-03-17T21:39:29.970Z,30.30
2023-03-17T21:41:57.562Z,30.40
2023-03-17T21:44:24.565Z,30.30
2023-03-17T21:46:51.263Z,30.40
2023-03-17T21:49:18.861Z,30.40
2023-03-17T21:51:46.675Z,30.40
2023-03-17T21:54:14.282Z,30.40
2023-03-17T21:56:41.687Z,30.40
2023-03-17T21:59:11.025Z,30.40
2023-03-17T22:01:39.504Z,30.40
2023-03-17T22:04:07.820Z,30.60
2023-03-17T22:06:34.457Z,30.50
2023-03-17T22:09:01.583Z,30.50
2023-03-17T22:11:28.476Z,30.50
2023-03-17T22:13:55.740Z,30.50
2023-03-17T22:16:22.524Z,30.50
2023-03-17T22:18:49.272Z,30.50
2023-03-17T22:21:16.190Z,30.60
2023-03-17T22:23:42.797Z,30.60
2023-03-17T22:26:13.575Z,30.60
2023-03-17T22:28:40.777Z,30.70
2023-03-17T22:31:16.430Z,30.60
2023-03-17T22:33:43.953Z,30.60
2023-03-17T22:36:11.228Z,30.60
2023-03-17T22:38:38.266Z,30.70
2023-03-17T22:41:07.966Z,30.70
2023-03-17T22:43:35.796Z,30.70
2023-03-17T22:46:02.882Z,30.70
2023-03-17T22:48:29.576Z,30.70
2023-03-17T22:50:56.448Z,30.70
2023-03-17T22:53:23.070Z,30.70
2023-03-17T22:55:49.688Z,30.70
2023-03-17T22:58:16.366Z,30.70
2023-03-17T23:00:43.135Z,30.70
2023-03-17T23:03:09.734Z,30.70
2023-03-17T23:05:36.437Z,30.70
2023-03-17T23:08:03.316Z,30.70
2023-03-17T23:10:33.550Z,30.70
2023-03-17T23:13:00.384Z,30.70
2023-03-17T23:15:27.917Z,30.70
2023-03-17T23:17:54.589Z,30.70
2023-03-17T23:20:24.507Z,30.70
2023-03-17T23:22:52.588Z,30.80
2023-03-17T23:25:19.804Z,30.80
2023-03-17T23:27:46.932Z,30.80
2023-03-17T23:30:14.690Z,30.80
2023-03-17T23:32:42.802Z,30.80
2023-03-17T23:35:11.256Z,30.80
2023-03-17T23:37:38.289Z,30.80
2023-03-17T23:40:06.473Z,30.80
2023-03-17T23:42:33.844Z,30.80
2023-03-17T23:45:00.679Z,30.90
2023-03-17T23:47:27.728Z,30.90
2023-03-17T23:49:54.794Z,30.90
2023-03-17T23:52:22.016Z,30.90
2023-03-17T23:54:49.209Z,30.90
2023-03-17T23:57:15.995Z,30.90
2023-03-17T23:59:43.144Z,31.00
